createdAt,value
2018-11-12T00:01:26.025Z,100283.18
2018-11-12T00:06:28.521Z,100291.01
2018-11-12T00:11:31.382Z,100289.86
2018-11-12T00:16:33.900Z,100283.19
2018-11-12T00:21:36.470Z,100284.89
2018-11-12T00:26:38.916Z,100299.08
2018-11-12T00:31:41.536Z,100293.34
2018-11-12T00:36:44.654Z,100307.94
2018-11-12T00:41:47.251Z,100310.97
2018-11-12T00:46:50.235Z,100312.57
2018-11-12T00:51:52.788Z,100290.14
2018-11-12T00:56:55.412Z,100296.66
2018-11-12T01:02:04.877Z,100298.55
2018-11-12T01:07:07.353Z,100297.87
2018-11-12T01:12:09.846Z,100294.76
2018-11-12T01:17:12.357Z,100292.70
2018-11-12T01:22:14.871Z,100289.18
2018-11-12T01:27:17.376Z,100286.48
2018-11-12T01:32:19.941Z,100299.26
2018-11-12T01:37:23.178Z,100295.78
2018-11-12T01:42:25.926Z,100296.39
2018-11-12T01:47:28.714Z,100296.28
2018-11-12T01:52:33.293Z,100284.60
2018-11-12T01:57:36.344Z,100281.08
2018-11-12T02:02:40.434Z,100278.89
2018-11-12T02:07:42.971Z,100285.39
2018-11-12T02:12:46.991Z,100278.72
2018-11-12T02:17:50.052Z,100270.63
2018-11-12T02:22:53.263Z,100268.53
2018-11-12T02:27:56.223Z,100260.63
2018-11-12T02:32:59.149Z,100263.38
2018-11-12T02:38:01.722Z,100266.14
2018-11-12T02:43:04.359Z,100261.48
2018-11-12T02:48:06.836Z,100260.84
2018-11-12T02:53:10.355Z,100256.33
2018-11-12T02:58:12.973Z,100256.53
2018-11-12T03:03:15.473Z,100251.95
2018-11-12T03:08:17.906Z,100246.95
2018-11-12T03:13:20.373Z,100254.64
2018-11-12T03:18:22.988Z,100258.65
2018-11-12T03:23:25.512Z,100253.11
2018-11-12T03:28:28.184Z,100248.73
2018-11-12T03:33:30.765Z,100236.23
2018-11-12T03:38:33.264Z,100234.66
2018-11-12T03:43:35.656Z,100238.31
2018-11-12T03:48:38.358Z,100245.48
2018-11-12T03:53:40.863Z,100248.18
2018-11-12T03:58:43.277Z,100241.13
2018-11-12T04:03:45.673Z,100240.45
2018-11-12T04:08:48.124Z,100236.27
2018-11-12T04:13:50.629Z,100228.84
2018-11-12T04:18:53.039Z,100241.99
2018-11-12T04:23:55.439Z,100243.45
2018-11-12T04:28:57.958Z,100236.77
2018-11-12T04:34:00.452Z,100238.01
2018-11-12T04:39:03.231Z,100244.45
2018-11-12T04:44:05.788Z,100240.67
2018-11-12T04:49:08.234Z,100231.70
2018-11-12T04:54:10.752Z,100238.27
2018-11-12T04:59:13.342Z,100234.11
2018-11-12T05:04:15.787Z,100227.80
2018-11-12T05:09:18.165Z,100227.89
2018-11-12T05:14:20.602Z,100234.38
2018-11-12T05:19:23.084Z,100225.02
2018-11-12T05:24:25.754Z,100235.71
2018-11-12T05:29:28.175Z,100235.52
2018-11-12T05:34:31.303Z,100233.73
2018-11-12T05:39:33.672Z,100233.78
2018-11-12T05:55:51.218Z,100240.76
2018-11-12T06:51:23.007Z,100284.53
2018-11-12T16:55:10.337Z,100625.75
2018-11-12T17:00:16.177Z,100608.08
2018-11-12T17:05:19.991Z,100612.95
2018-11-12T17:10:24.109Z,100607.45
2018-11-12T17:15:26.665Z,100631.06
2018-11-12T17:20:29.254Z,100616.43
2018-11-12T17:25:32.344Z,100597.72
2018-11-12T17:30:34.988Z,100610.38
2018-11-12T17:35:37.673Z,100624.11
2018-11-12T17:40:40.308Z,100606.44
2018-11-12T17:45:42.949Z,100591.71
2018-11-12T17:50:45.426Z,100593.83
2018-11-12T17:55:50.138Z,100612.38
2018-11-12T18:00:55.861Z,100612.67
2018-11-12T18:07:00.717Z,100615.78
2018-11-12T18:12:03.254Z,100621.45
2018-11-12T18:17:06.122Z,100614.09
2018-11-12T18:22:09.720Z,100620.70
2018-11-12T18:27:12.318Z,100623.01
2018-11-12T18:32:15.090Z,100631.12
2018-11-12T18:37:17.898Z,100631.41
2018-11-12T18:42:20.667Z,100636.59
2018-11-12T18:47:23.293Z,100624.13
2018-11-12T18:52:25.979Z,100632.72
2018-11-12T18:57:28.733Z,100630.27
2018-11-12T19:02:31.233Z,100636.59
2018-11-12T19:07:33.855Z,100636.28
2018-11-12T19:12:36.495Z,100656.94
2018-11-12T19:17:39.166Z,100650.42
2018-11-12T19:22:41.872Z,100667.16
2018-11-12T19:27:44.793Z,100665.34
2018-11-12T19:32:48.657Z,100670.21
2018-11-12T19:37:51.530Z,100691.91
2018-11-12T19:42:54.907Z,100677.55
2018-11-12T19:47:57.447Z,100679.66
2018-11-12T19:53:00.340Z,100673.19
2018-11-12T19:58:03.075Z,100674.90
2018-11-12T20:03:05.732Z,100667.83
2018-11-12T20:08:08.371Z,100671.11
2018-11-12T20:13:11.059Z,100659.83
2018-11-12T20:18:13.609Z,100668.32
2018-11-12T20:23:16.227Z,100670.80
2018-11-12T20:28:18.876Z,100668.31
2018-11-12T20:33:21.550Z,100674.52
2018-11-12T20:38:24.872Z,100690.94
2018-11-12T20:43:28.714Z,100697.82
2018-11-12T20:48:31.485Z,100708.13
2018-11-12T20:53:34.233Z,100703.96
2018-11-12T20:58:36.744Z,100704.70
2018-11-12T21:03:40.139Z,100700.09
2018-11-12T21:08:42.761Z,100690.94
2018-11-12T21:13:45.360Z,100698.81
2018-11-12T21:18:47.949Z,100705.29
2018-11-12T21:23:51.517Z,100722.41
2018-11-12T21:28:54.122Z,100735.70
2018-11-12T21:33:56.722Z,100720.97
2018-11-12T21:38:59.199Z,100717.03
2018-11-12T21:44:01.887Z,100707.39
2018-11-12T21:49:05.913Z,100712.55
2018-11-12T21:54:08.442Z,100722.52
2018-11-12T21:59:11.089Z,100708.53
2018-11-12T22:04:13.632Z,100710.00
2018-11-12T22:09:16.509Z,100744.31
2018-11-12T22:14:19.004Z,100737.72
2018-11-12T22:19:21.778Z,100718.68
2018-11-12T22:24:24.193Z,100717.06
2018-11-12T22:29:26.686Z,100746.72
2018-11-12T22:34:29.147Z,100721.93
2018-11-12T22:39:31.669Z,100729.52
2018-11-12T22:44:34.161Z,100757.71
2018-11-12T22:49:36.935Z,100773.38
2018-11-12T22:54:39.383Z,100752.55
2018-11-12T22:59:41.960Z,100766.22
2018-11-12T23:04:44.456Z,100744.72
2018-11-12T23:09:46.924Z,100730.94
2018-11-12T23:14:49.489Z,100765.73
2018-11-12T23:19:52.265Z,100759.80
2018-11-12T23:24:54.814Z,100766.87
2018-11-12T23:29:57.383Z,100753.77
2018-11-12T23:34:59.880Z,100785.22
2018-11-12T23:40:02.531Z,100807.48
2018-11-12T23:45:05.544Z,100778.80
2018-11-12T23:50:09.954Z,100781.48
2018-11-12T23:55:13.008Z,100770.41
